Stamford, Vermont
Current Conditions -  °F | °C
As of 10:52 AM on Thursday 27 Nov 2014 (Local Time) from KAQW Reporting Station
Overcast Overcast  
Wind Chill: 22°   Ceiling: 1300
Heat Index: 28°   Visibility: 10mi
Dew Point: 24°   Wind: 6mph
Humidity: 85%   Direction: 280°W
Pressure: 29.99"   Gusts: NA
Location:  42.788°N, 73.0785°W
Report Text: KAQW 271552Z AUTO 28005KT 10SM OVC013 M02/M04 A2999 RMK AO2 SLP163 T10221044 FZRANO $
Loading
Personal Weather Stations






























Interactive Weather Map New forecast layout! Learn more

10-Day Weather Forecast

Advertisements
Track Severe Weather on mobile